createdAt,value
2022-12-01T00:00:10.997Z,14.20
2022-12-01T00:03:51.066Z,13.03
2022-12-01T00:07:23.146Z,14.25
2022-12-01T00:10:55.119Z,13.93
2022-12-01T00:14:27.131Z,13.40
2022-12-01T00:17:58.857Z,14.73
2022-12-01T00:21:30.764Z,12.57
2022-12-01T00:25:02.425Z,13.73
2022-12-01T00:28:34.371Z,11.25
2022-12-01T00:32:06.164Z,13.18
2022-12-01T00:35:38.181Z,11.43
2022-12-01T00:39:09.879Z,12.63
2022-12-01T00:42:41.686Z,11.80
2022-12-01T00:46:13.423Z,13.65
2022-12-01T00:49:46.524Z,12.23
2022-12-01T00:53:18.678Z,14.13
2022-12-01T00:56:51.172Z,12.25
2022-12-01T01:00:22.817Z,14.67
2022-12-01T01:03:54.700Z,16.38
2022-12-01T01:07:26.308Z,13.90
2022-12-01T01:10:59.633Z,15.10
2022-12-01T01:14:31.308Z,14.23
2022-12-01T01:18:03.583Z,16.38
2022-12-01T01:21:35.093Z,14.60
2022-12-01T01:25:07.531Z,12.93
2022-12-01T01:28:41.717Z,12.95
2022-12-01T01:32:13.613Z,11.80
2022-12-01T01:35:45.422Z,11.00
2022-12-01T01:39:17.579Z,11.73
2022-12-01T01:42:49.247Z,12.10
2022-12-01T01:46:27.127Z,13.32
2022-12-01T01:50:06.274Z,12.83
2022-12-01T01:53:38.479Z,13.48
2022-12-01T01:57:13.922Z,13.13
2022-12-01T02:00:46.669Z,12.57
2022-12-01T02:04:20.341Z,11.90
2022-12-01T02:07:55.190Z,14.85
2022-12-01T02:12:12.683Z,12.90
2022-12-01T02:16:04.116Z,12.65
2022-12-01T02:20:17.641Z,12.88
2022-12-01T02:24:18.433Z,11.52
2022-12-01T02:28:14.917Z,14.20
2022-12-01T02:32:02.489Z,13.60
2022-12-01T02:35:52.547Z,12.55
2022-12-01T02:39:38.410Z,11.50
2022-12-01T02:43:19.550Z,12.02
2022-12-01T02:46:59.544Z,14.43
2022-12-01T02:50:33.605Z,13.00
2022-12-01T02:54:06.286Z,11.10
2022-12-01T02:57:38.226Z,12.85
2022-12-01T03:01:32.860Z,12.57
2022-12-01T03:05:24.319Z,12.23
2022-12-01T03:08:59.496Z,11.48
2022-12-01T03:12:38.032Z,10.57
2022-12-01T03:16:24.401Z,10.93
2022-12-01T03:20:12.646Z,10.43
2022-12-01T03:23:50.132Z,10.68
2022-12-01T03:27:26.010Z,12.03
2022-12-01T03:31:04.221Z,10.27
2022-12-01T03:34:43.678Z,10.55
2022-12-01T03:38:25.822Z,12.20
2022-12-01T03:42:03.120Z,11.17
2022-12-01T03:45:54.108Z,11.48
2022-12-01T03:49:26.935Z,11.23
2022-12-01T03:53:19.474Z,11.03
2022-12-01T03:56:56.172Z,10.60
2022-12-01T04:00:29.031Z,10.20
2022-12-01T04:04:10.479Z,10.17
2022-12-01T04:07:42.478Z,10.52
2022-12-01T04:11:33.051Z,11.15
2022-12-01T04:15:12.470Z,10.57
2022-12-01T04:18:44.632Z,11.13
2022-12-01T04:22:16.621Z,10.90
2022-12-01T04:25:48.334Z,11.00
2022-12-01T04:29:20.233Z,10.47
2022-12-01T04:32:51.977Z,11.70
2022-12-01T04:36:25.169Z,10.93
2022-12-01T04:39:56.716Z,10.67
2022-12-01T04:43:28.847Z,11.20
2022-12-01T04:47:00.629Z,12.45
2022-12-01T04:50:34.665Z,10.52
2022-12-01T04:54:06.553Z,10.40
2022-12-01T04:57:39.520Z,11.15
2022-12-01T05:01:15.239Z,10.95
2022-12-01T05:04:48.332Z,11.43
2022-12-01T05:08:20.251Z,11.77
2022-12-01T05:11:52.878Z,10.52
2022-12-01T05:15:24.935Z,11.10
2022-12-01T05:19:18.889Z,11.02
2022-12-01T05:23:10.766Z,10.70
2022-12-01T05:26:44.974Z,10.10
2022-12-01T05:30:28.243Z,11.00
2022-12-01T05:34:00.606Z,11.52
2022-12-01T05:37:34.765Z,10.40
2022-12-01T05:41:06.815Z,12.13
2022-12-01T05:44:38.509Z,10.93
2022-12-01T05:48:10.700Z,10.00
2022-12-01T05:51:43.697Z,11.10
2022-12-01T05:55:15.995Z,12.05
2022-12-01T05:58:47.758Z,10.45
2022-12-01T06:02:19.690Z,11.43
2022-12-01T06:05:51.845Z,13.87
2022-12-01T06:09:23.890Z,11.32
2022-12-01T06:12:55.579Z,12.85
2022-12-01T06:16:27.625Z,12.33
2022-12-01T06:19:59.257Z,11.23
2022-12-01T06:23:31.405Z,12.05
2022-12-01T06:27:03.464Z,11.37
2022-12-01T06:30:35.393Z,10.82
2022-12-01T06:34:06.950Z,11.23
2022-12-01T06:37:38.814Z,11.55
2022-12-01T06:41:10.537Z,10.73
2022-12-01T06:44:42.424Z,12.65
2022-12-01T06:48:14.688Z,11.20
2022-12-01T06:51:46.743Z,12.37
2022-12-01T06:55:18.401Z,11.32
2022-12-01T06:58:50.749Z,13.07
2022-12-01T07:02:23.444Z,13.40
2022-12-01T07:06:00.304Z,13.90
2022-12-01T07:09:31.881Z,12.48
2022-12-01T07:13:03.933Z,14.90
2022-12-01T07:16:35.522Z,13.20
2022-12-01T07:20:10.214Z,13.65
2022-12-01T07:23:42.380Z,18.10
2022-12-01T07:27:14.578Z,14.27
2022-12-01T07:30:46.371Z,15.60
2022-12-01T07:34:18.378Z,16.02
2022-12-01T07:37:55.584Z,14.57
2022-12-01T07:41:27.566Z,16.38
2022-12-01T07:44:59.178Z,15.63
2022-12-01T07:48:31.136Z,13.48
2022-12-01T07:52:03.315Z,13.80
2022-12-01T07:55:35.148Z,15.65
2022-12-01T07:59:07.038Z,13.25
2022-12-01T08:02:39.146Z,17.17
2022-12-01T08:06:11.599Z,16.98
2022-12-01T08:09:45.016Z,16.35
2022-12-01T08:13:17.582Z,13.37
2022-12-01T08:16:50.235Z,13.02
2022-12-01T08:20:24.029Z,18.48
2022-12-01T08:23:58.003Z,19.83
2022-12-01T08:27:29.611Z,13.97
2022-12-01T08:31:13.828Z,12.52
2022-12-01T08:34:49.362Z,11.43
2022-12-01T08:38:24.948Z,11.30
2022-12-01T08:41:56.508Z,11.93
2022-12-01T08:45:28.419Z,12.23
2022-12-01T08:49:01.038Z,10.83
2022-12-01T08:58:10.421Z,11.63
2022-12-01T09:01:54.623Z,11.02
2022-12-01T09:05:26.684Z,11.43
2022-12-01T09:09:02.298Z,12.45
2022-12-01T09:12:33.875Z,11.85
2022-12-01T09:16:08.891Z,12.07
2022-12-01T09:19:40.773Z,12.43
2022-12-01T09:23:13.673Z,11.15
2022-12-01T09:26:45.291Z,14.40
2022-12-01T09:30:17.668Z,12.20
2022-12-01T09:33:57.714Z,14.10
2022-12-01T09:37:29.603Z,14.25
2022-12-01T09:41:06.996Z,14.70
2022-12-01T09:44:44.624Z,12.95
2022-12-01T09:48:31.678Z,12.35
2022-12-01T09:52:03.848Z,12.83
2022-12-01T09:55:37.180Z,13.00
2022-12-01T09:59:18.024Z,13.63
2022-12-01T10:03:03.300Z,13.13
2022-12-01T10:06:45.371Z,12.85
2022-12-01T10:10:20.125Z,12.13
2022-12-01T10:13:52.056Z,12.63
2022-12-01T10:17:23.574Z,12.47
2022-12-01T10:21:11.413Z,12.57
2022-12-01T10:25:17.290Z,12.43
2022-12-01T10:29:07.133Z,11.90
2022-12-01T10:32:50.047Z,13.50
2022-12-01T10:36:23.033Z,12.13
2022-12-01T10:39:56.745Z,13.70
2022-12-01T10:43:34.119Z,13.48
2022-12-01T10:47:18.433Z,13.25
2022-12-01T10:50:56.086Z,13.95
2022-12-01T10:54:36.204Z,12.40
2022-12-01T10:58:16.040Z,13.13
2022-12-01T11:01:51.435Z,11.25
2022-12-01T11:05:32.876Z,12.47
2022-12-01T11:09:15.795Z,12.50
2022-12-01T11:12:57.743Z,14.20
2022-12-01T11:16:44.724Z,13.67
2022-12-01T11:20:39.877Z,13.43
2022-12-01T11:24:28.392Z,14.10
2022-12-01T11:28:01.927Z,15.07
2022-12-01T11:31:42.598Z,15.13
2022-12-01T11:35:20.716Z,13.52
2022-12-01T11:38:57.682Z,13.02
2022-12-01T11:42:31.233Z,13.03
2022-12-01T11:46:06.540Z,13.85
2022-12-01T11:49:46.905Z,13.55
2022-12-01T11:53:28.457Z,13.73
2022-12-01T11:57:31.651Z,12.30
2022-12-01T12:00:57.914Z,13.40
2022-12-01T12:04:36.962Z,15.25
2022-12-01T12:08:28.787Z,14.23
2022-12-01T12:12:14.390Z,14.77
2022-12-01T12:16:01.023Z,14.63
2022-12-01T12:20:08.486Z,13.80
2022-12-01T12:24:07.793Z,12.77
2022-12-01T12:27:48.234Z,12.73
2022-12-01T12:32:01.342Z,14.33
2022-12-01T12:35:41.330Z,11.02
2022-12-01T12:39:32.033Z,12.27
2022-12-01T12:43:25.539Z,11.68
2022-12-01T12:47:09.919Z,11.07
2022-12-01T12:51:08.636Z,11.65
2022-12-01T12:54:54.306Z,13.50
2022-12-01T12:58:35.848Z,12.20
2022-12-01T13:02:19.735Z,12.00
2022-12-01T13:06:05.489Z,13.55
2022-12-01T13:09:43.752Z,12.70
2022-12-01T13:13:33.736Z,13.30
2022-12-01T13:17:33.993Z,12.32
2022-12-01T13:21:08.199Z,12.10
2022-12-01T13:24:40.184Z,12.03
2022-12-01T13:28:18.933Z,12.40
2022-12-01T13:31:52.995Z,13.23
2022-12-01T13:35:32.032Z,13.97
2022-12-01T13:39:18.573Z,14.15
2022-12-01T13:43:08.441Z,14.55
2022-12-01T13:46:42.193Z,14.10
2022-12-01T13:50:36.233Z,13.27
2022-12-01T13:54:28.575Z,14.73
2022-12-01T13:58:00.627Z,15.73
2022-12-01T14:01:43.631Z,16.30
2022-12-01T14:05:24.399Z,12.38
2022-12-01T14:09:03.007Z,12.70
2022-12-01T14:12:37.826Z,14.43
2022-12-01T14:16:09.686Z,13.02
2022-12-01T14:19:52.963Z,14.20
2022-12-01T14:23:34.009Z,13.00
2022-12-01T14:27:08.267Z,13.05
2022-12-01T14:30:47.099Z,11.20
2022-12-01T14:34:24.306Z,12.60
2022-12-01T14:37:56.580Z,13.40
2022-12-01T14:41:32.216Z,12.82
2022-12-01T14:45:07.385Z,13.13
2022-12-01T14:48:46.149Z,14.13
2022-12-01T14:52:29.808Z,12.65
2022-12-01T14:56:12.339Z,13.20
2022-12-01T14:59:44.695Z,12.33
2022-12-01T15:03:23.208Z,13.00
2022-12-01T15:07:00.266Z,12.88
2022-12-01T15:10:36.976Z,12.50
2022-12-01T15:14:30.140Z,13.00
2022-12-01T15:18:22.822Z,12.85
2022-12-01T15:21:54.518Z,12.68
2022-12-01T15:25:34.438Z,13.70
2022-12-01T15:29:15.732Z,12.50
2022-12-01T15:32:47.937Z,13.15
2022-12-01T15:36:19.785Z,14.23
2022-12-01T15:40:35.720Z,16.08
2022-12-01T15:44:03.505Z,16.15
2022-12-01T15:47:48.857Z,13.30
2022-12-01T15:51:27.063Z,11.67
2022-12-01T15:55:03.649Z,12.13
2022-12-01T15:58:45.461Z,12.13
2022-12-01T16:02:20.526Z,14.70
2022-12-01T16:05:52.655Z,14.43
2022-12-01T16:09:40.278Z,12.50
2022-12-01T16:13:45.981Z,12.70
2022-12-01T16:17:18.304Z,14.00
2022-12-01T16:20:50.000Z,15.02
2022-12-01T16:24:35.877Z,8.73
2022-12-01T16:28:37.659Z,8.43
2022-12-01T16:32:22.053Z,9.85
2022-12-01T16:35:55.337Z,10.07
2022-12-01T16:39:27.736Z,11.70
2022-12-01T16:42:59.380Z,11.00
2022-12-01T16:46:32.453Z,10.35
2022-12-01T16:50:04.474Z,8.47
2022-12-01T16:53:36.511Z,8.57
2022-12-01T16:57:08.525Z,7.82
2022-12-01T17:00:41.310Z,7.40
2022-12-01T17:04:13.037Z,6.97
2022-12-01T17:07:45.127Z,5.95
2022-12-01T17:11:16.770Z,6.45
2022-12-01T17:14:49.292Z,7.20
2022-12-01T17:18:22.567Z,7.45
2022-12-01T17:21:56.021Z,9.13
2022-12-01T17:25:27.629Z,12.60
2022-12-01T17:28:59.520Z,9.57
2022-12-01T17:32:32.200Z,9.65
2022-12-01T17:36:06.858Z,10.63
2022-12-01T17:39:38.490Z,10.23
2022-12-01T17:43:10.449Z,9.35
2022-12-01T17:46:42.693Z,8.68
2022-12-01T17:50:15.250Z,7.37
2022-12-01T17:53:47.014Z,9.38
2022-12-01T17:57:19.125Z,7.60
2022-12-01T18:00:53.628Z,7.33
2022-12-01T18:04:25.780Z,7.55
2022-12-01T18:07:57.786Z,8.98
2022-12-01T18:11:29.893Z,12.82
2022-12-01T18:15:01.653Z,9.17
2022-12-01T18:18:33.792Z,6.82
2022-12-01T18:22:05.336Z,7.38
2022-12-01T18:25:37.615Z,7.30
2022-12-01T18:29:16.111Z,6.35
2022-12-01T18:32:49.181Z,5.90
2022-12-01T18:36:22.769Z,4.67
2022-12-01T18:39:55.692Z,8.68
2022-12-01T18:43:31.997Z,11.80
2022-12-01T18:47:03.960Z,8.18
2022-12-01T18:50:35.782Z,6.23
2022-12-01T18:54:10.414Z,4.65
2022-12-01T18:57:42.031Z,5.85
2022-12-01T19:01:21.232Z,5.20
2022-12-01T19:04:53.136Z,6.07
2022-12-01T19:08:25.685Z,6.28
2022-12-01T19:12:00.032Z,5.17
2022-12-01T19:15:32.007Z,5.97
2022-12-01T19:19:03.809Z,5.45
2022-12-01T19:22:35.696Z,5.38
2022-12-01T19:26:10.566Z,6.60
2022-12-01T19:29:42.556Z,5.88
2022-12-01T19:33:14.881Z,6.07
2022-12-01T19:36:46.938Z,4.80
2022-12-01T19:40:18.900Z,5.43
2022-12-01T19:43:52.074Z,7.63
2022-12-01T19:47:23.623Z,7.40
2022-12-01T19:50:55.527Z,7.72
2022-12-01T19:54:28.918Z,4.88
2022-12-01T19:58:00.780Z,3.58
2022-12-01T20:01:32.543Z,4.43
2022-12-01T20:05:05.588Z,3.28
2022-12-01T20:08:37.424Z,3.70
2022-12-01T20:12:10.099Z,3.73
2022-12-01T20:15:41.824Z,3.45
2022-12-01T20:19:13.699Z,4.32
2022-12-01T20:22:45.266Z,3.50
2022-12-01T20:26:18.921Z,3.88
2022-12-01T20:29:50.671Z,4.32
2022-12-01T20:33:23.330Z,5.65
2022-12-01T20:36:56.913Z,4.13
2022-12-01T20:40:28.737Z,5.70
2022-12-01T20:44:06.753Z,4.63
2022-12-01T20:47:39.408Z,4.07
2022-12-01T20:51:12.513Z,4.30
2022-12-01T20:54:44.885Z,6.05
2022-12-01T20:58:16.617Z,7.53
2022-12-01T21:01:48.929Z,7.43
2022-12-01T21:05:20.626Z,4.70
2022-12-01T21:08:52.867Z,3.97
2022-12-01T21:12:44.018Z,3.97
2022-12-01T21:16:15.948Z,3.30
2022-12-01T21:19:56.655Z,3.20
2022-12-01T21:23:29.708Z,6.40
2022-12-01T21:27:08.438Z,5.20
2022-12-01T21:30:40.531Z,3.80
2022-12-01T21:34:20.969Z,3.27
2022-12-01T21:38:04.097Z,4.90
2022-12-01T21:41:35.760Z,3.78
2022-12-01T21:45:26.119Z,3.97
2022-12-01T21:48:57.877Z,4.07
2022-12-01T21:52:39.290Z,4.75
2022-12-01T21:56:20.470Z,5.85
2022-12-01T21:59:57.878Z,5.10
2022-12-01T22:03:37.070Z,5.13
2022-12-01T22:07:09.305Z,4.70
2022-12-01T22:10:54.054Z,4.80
2022-12-01T22:14:34.378Z,5.45
2022-12-01T22:18:21.960Z,5.68
2022-12-01T22:22:09.141Z,5.53
2022-12-01T22:25:42.290Z,5.90
2022-12-01T22:29:22.726Z,5.40
2022-12-01T22:33:00.880Z,5.93
2022-12-01T22:36:33.413Z,5.30
2022-12-01T22:40:31.866Z,4.43
2022-12-01T22:44:03.956Z,5.45
2022-12-01T22:47:35.609Z,6.50
2022-12-01T22:51:20.843Z,5.28
2022-12-01T22:54:52.728Z,5.38
2022-12-01T22:58:30.613Z,6.95
2022-12-01T23:02:12.218Z,7.17
2022-12-01T23:05:45.729Z,7.65
2022-12-01T23:09:17.294Z,7.25
2022-12-01T23:12:52.247Z,7.67
2022-12-01T23:16:25.076Z,8.45
2022-12-01T23:20:20.017Z,8.23
2022-12-01T23:23:51.648Z,8.13
2022-12-01T23:27:23.623Z,10.10
2022-12-01T23:30:57.759Z,9.65
2022-12-01T23:34:30.130Z,8.13
2022-12-01T23:38:01.883Z,8.37
2022-12-01T23:41:40.934Z,9.32
2022-12-01T23:45:25.082Z,10.98
2022-12-01T23:49:03.727Z,12.43
2022-12-01T23:52:36.605Z,7.78
2022-12-01T23:56:14.317Z,7.47
2022-12-01T23:59:46.336Z,8.47
